Cdry Blue — ICOB — position and weather

sailwx.info

Track history (hours):
 
Tides and Currents Weather Stations Pressure Air Temp Water Temp Dewpoint Dewpoint Depression Visibility Wind Speed Wind Dir Waves Ship Positions

Cdry Blue

Last reported at 2015-Mar-07 00:16 UTC. Time now 2015-Mar-07 01:40 UTC.
Position N 38°16' E 000°29'.

Length 108 m; draft 7.2 m.

Type: Cargo ship. MMSI: 247289300.

Date/timePositionNaut miles runAvg speedWind from/ knotsBaromVisibWave heightAir tempDewpointWater temp
2015-Mar-07 00:16N 38°16' E 000°29'911.9
2015-Mar-06 23:29N 38°16' E 000°17'1111.7
2015-Mar-06 22:32N 38°16' E 000°03'1211.8
2015-Mar-06 21:32N 38°16' W 000°13'12 0.3
2015-Mar-05 02:14N 38°18' W 000°28'69 9.9
2015-Mar-04 19:16N 39°25' W 000°03'  
2015-Mar-02 10:14N 39°26' E 000°46'2011.7
2015-Mar-02 08:33N 39°22' E 001°11'1211.6
2015-Mar-02 07:33N 39°20' E 001°26'1111.4
2015-Mar-02 06:33N 39°17' E 001°40'1111.5
2015-Mar-02 05:33N 39°15' E 001°55'1211.7
2015-Mar-02 04:33N 39°12' E 002°10'1211.5
2015-Mar-02 03:33N 39°10' E 002°24'1111.3
2015-Mar-02 02:33N 39°07' E 002°38'1111.4
2015-Mar-02 01:33N 39°05' E 002°53'1211.6
2015-Mar-02 00:33N 39°03' E 003°08'1111.3
2015-Mar-01 23:32N 39°01' E 003°22'1111.4
2015-Mar-01 22:33N 39°01' E 003°37'1211.7
2015-Mar-01 21:32N 39°00' E 003°52'1311.6
2015-Mar-01 20:27N 38°60' E 004°08'19311.2
2015-Mar-01 03:11N 38°49' E 008°16'6 9.6
2015-Mar-01 02:32N 38°48' E 008°24'10 9.9
2015-Mar-01 01:29N 38°47' E 008°37'1010.7
2015-Mar-01 00:33N 38°45' E 008°50'16511.0
2015-Feb-28 09:33N 38°18' E 012°17'1311.7
2015-Feb-28 08:29N 38°17' E 012°33'1112.2
2015-Feb-28 07:33N 38°16' E 012°48'1212.2
2015-Feb-28 06:33N 38°16' E 013°03'1211.7
2015-Feb-28 05:33N 38°16' E 013°18'1111.3
2015-Feb-28 04:33N 38°17' E 013°32'1111.4
2015-Feb-28 03:33N 38°17' E 013°47'1211.3
2015-Feb-28 02:32N 38°18' E 014°02'  
Track history (hours):
 
Tides and Currents Weather Stations Pressure Air Temp Water Temp Dewpoint Dewpoint Depression Visibility Wind Speed Wind Dir Waves Ship Positions

Cdry Blue

Last reported at 2015-Mar-07 00:16 UTC. Time now 2015-Mar-07 01:40 UTC.
Position N 38°16' E 000°29'.

Length 108 m; draft 7.2 m.

Type: Cargo ship. MMSI: 247289300.

Date/timePositionNaut miles runAvg speedWind from/ knotsBaromVisibWave heightAir tempDewpointWater temp
2015-Mar-07 00:16N 38°16' E 000°29'911.9
2015-Mar-06 23:29N 38°16' E 000°17'1111.7
2015-Mar-06 22:32N 38°16' E 000°03'1211.8
2015-Mar-06 21:32N 38°16' W 000°13'12 0.3
2015-Mar-05 02:14N 38°18' W 000°28'69 9.9
2015-Mar-04 19:16N 39°25' W 000°03'  
2015-Mar-02 10:14N 39°26' E 000°46'2011.7
2015-Mar-02 08:33N 39°22' E 001°11'1211.6
2015-Mar-02 07:33N 39°20' E 001°26'1111.4
2015-Mar-02 06:33N 39°17' E 001°40'1111.5
2015-Mar-02 05:33N 39°15' E 001°55'1211.7
2015-Mar-02 04:33N 39°12' E 002°10'1211.5
2015-Mar-02 03:33N 39°10' E 002°24'1111.3
2015-Mar-02 02:33N 39°07' E 002°38'1111.4
2015-Mar-02 01:33N 39°05' E 002°53'1211.6
2015-Mar-02 00:33N 39°03' E 003°08'1111.3
2015-Mar-01 23:32N 39°01' E 003°22'1111.4
2015-Mar-01 22:33N 39°01' E 003°37'1211.7
2015-Mar-01 21:32N 39°00' E 003°52'1311.6
2015-Mar-01 20:27N 38°60' E 004°08'19311.2
2015-Mar-01 03:11N 38°49' E 008°16'6 9.6
2015-Mar-01 02:32N 38°48' E 008°24'10 9.9
2015-Mar-01 01:29N 38°47' E 008°37'1010.7
2015-Mar-01 00:33N 38°45' E 008°50'16511.0
2015-Feb-28 09:33N 38°18' E 012°17'1311.7
2015-Feb-28 08:29N 38°17' E 012°33'1112.2
2015-Feb-28 07:33N 38°16' E 012°48'1212.2
2015-Feb-28 06:33N 38°16' E 013°03'1211.7
2015-Feb-28 05:33N 38°16' E 013°18'1111.3
2015-Feb-28 04:33N 38°17' E 013°32'1111.4
2015-Feb-28 03:33N 38°17' E 013°47'1211.3
2015-Feb-28 02:32N 38°18' E 014°02'  

Dump ship's entire track history